createdAt,value
2018-08-03T00:00:22.787Z,101082.20
2018-08-03T00:02:50.843Z,101080.47
2018-08-03T00:05:18.932Z,101083.89
2018-08-03T00:07:46.975Z,101084.94
2018-08-03T00:10:15.547Z,101082.77
2018-08-03T00:12:44.043Z,101081.80
2018-08-03T00:15:12.681Z,101083.00
2018-08-03T00:17:41.163Z,101084.21
2018-08-03T00:20:09.800Z,101089.91
2018-08-03T00:22:38.318Z,101088.34
2018-08-03T00:25:08.394Z,101079.90
2018-08-03T00:27:37.355Z,101083.31
2018-08-03T00:30:07.364Z,101080.57
2018-08-03T00:32:36.507Z,101082.02
2018-08-03T00:35:05.708Z,101079.80
2018-08-03T00:37:35.196Z,101081.61
2018-08-03T00:40:05.090Z,101084.30
2018-08-03T00:42:35.832Z,101084.13
2018-08-03T00:45:05.581Z,101078.11
2018-08-03T00:47:35.428Z,101075.50
2018-08-03T00:50:05.505Z,101077.51
2018-08-03T00:55:24.758Z,101087.81
2018-08-03T00:57:52.868Z,101078.98
2018-08-03T01:00:20.977Z,101085.67
2018-08-03T01:02:49.024Z,101088.48
2018-08-03T01:05:17.084Z,101086.11
2018-08-03T01:07:45.447Z,101085.50
2018-08-03T01:10:13.495Z,101081.29
2018-08-03T01:12:41.539Z,101081.52
2018-08-03T01:15:09.584Z,101083.33
2018-08-03T01:17:37.624Z,101089.78
2018-08-03T01:20:05.763Z,101082.95
2018-08-03T01:22:33.819Z,101088.58
2018-08-03T01:25:01.867Z,101086.98
2018-08-03T01:27:29.923Z,101081.98
2018-08-03T01:29:57.996Z,101084.80
2018-08-03T01:32:26.043Z,101087.61
2018-08-03T01:34:54.103Z,101082.45
2018-08-03T01:37:22.151Z,101082.48
2018-08-03T01:39:50.315Z,101087.53
2018-08-03T01:42:18.367Z,101089.97
2018-08-03T01:44:46.428Z,101083.17
2018-08-03T01:47:14.488Z,101081.16
2018-08-03T01:49:42.543Z,101083.98
2018-08-03T01:52:10.702Z,101080.56
2018-08-03T01:54:38.792Z,101080.36
2018-08-03T01:57:06.873Z,101081.20
2018-08-03T01:59:35.964Z,101086.44
2018-08-03T02:02:05.356Z,101085.87
2018-08-03T02:04:35.307Z,101083.48
2018-08-03T02:07:05.223Z,101080.91
2018-08-03T02:09:34.678Z,101084.55
2018-08-03T02:12:04.718Z,101074.56
2018-08-03T02:14:34.689Z,101078.00
2018-08-03T02:17:04.600Z,101076.83
2018-08-03T02:19:34.338Z,101077.02
2018-08-03T02:22:04.165Z,101077.25
2018-08-03T02:24:33.918Z,101074.27
2018-08-03T02:27:03.212Z,101076.56
2018-08-03T02:29:32.700Z,101075.58
2018-08-03T02:32:01.116Z,101080.23
2018-08-03T02:34:29.163Z,101084.47
2018-08-03T02:36:57.179Z,101079.68
2018-08-03T02:39:25.313Z,101076.89
2018-08-03T02:41:53.360Z,101080.74
2018-08-03T02:44:21.392Z,101083.19
2018-08-03T02:46:49.427Z,101082.23
2018-08-03T02:49:17.459Z,101087.26
2018-08-03T02:51:45.492Z,101090.68
2018-08-03T02:54:13.543Z,101091.70
2018-08-03T02:56:41.622Z,101090.09
2018-08-03T02:59:09.715Z,101092.91
2018-08-03T03:01:37.759Z,101093.72
2018-08-03T03:04:05.912Z,101089.73
2018-08-03T03:06:33.952Z,101089.96
2018-08-03T03:09:02.004Z,101089.98
2018-08-03T03:11:30.028Z,101093.01
2018-08-03T03:13:58.376Z,101090.39
2018-08-03T03:16:26.438Z,101087.42
2018-08-03T03:18:54.475Z,101082.24
2018-08-03T03:21:22.534Z,101084.05
2018-08-03T03:23:50.551Z,101086.69
2018-08-03T03:26:18.612Z,101094.94
2018-08-03T03:28:46.653Z,101097.16
2018-08-03T03:31:14.695Z,101096.56
2018-08-03T03:33:42.773Z,101092.56
2018-08-03T03:36:10.879Z,101090.96
2018-08-03T03:38:38.924Z,101091.77
2018-08-03T03:41:06.964Z,101090.75
2018-08-03T03:43:35.031Z,101095.38
2018-08-03T03:46:03.430Z,101091.98
2018-08-03T03:48:31.457Z,101097.38
2018-08-03T03:50:59.525Z,101096.57
2018-08-03T03:53:27.508Z,101104.98
2018-08-03T03:55:55.572Z,101105.41
2018-08-03T03:58:23.591Z,101102.22
2018-08-03T04:00:51.623Z,101102.42
2018-08-03T04:03:19.668Z,101096.82
2018-08-03T04:05:47.712Z,101104.63
2018-08-03T04:08:15.747Z,101106.42
2018-08-03T04:10:43.767Z,101104.42
2018-08-03T04:13:11.950Z,101109.22
2018-08-03T04:15:39.988Z,101110.63
2018-08-03T04:18:16.209Z,101102.01
2018-08-03T04:20:44.264Z,101108.03
2018-08-03T04:23:12.286Z,101109.43
2018-08-03T04:25:40.422Z,101114.02
2018-08-03T04:28:08.753Z,101111.60
2018-08-03T04:30:37.367Z,101109.60
2018-08-03T04:33:05.912Z,101109.61
2018-08-03T04:35:34.750Z,101107.98
2018-08-03T04:38:04.044Z,101108.16
2018-08-03T04:40:33.595Z,101104.53
2018-08-03T04:43:03.097Z,101105.89
2018-08-03T04:45:32.241Z,101106.83
2018-08-03T04:48:00.361Z,101109.46
2018-08-03T04:50:28.453Z,101106.84
2018-08-03T04:52:56.471Z,101110.28
2018-08-03T04:55:24.511Z,101099.57
2018-08-03T04:57:52.651Z,101105.91
2018-08-03T05:00:20.695Z,101104.50
2018-08-03T05:02:48.724Z,101105.48
2018-08-03T05:05:16.817Z,101101.46
2018-08-03T05:07:44.885Z,101101.28
2018-08-03T05:10:12.934Z,101104.05
2018-08-03T05:12:40.948Z,101107.37
2018-08-03T05:15:09.396Z,101106.88
2018-08-03T05:17:37.705Z,101101.25
2018-08-03T05:20:05.936Z,101095.46
2018-08-03T05:22:33.996Z,101094.00
2018-08-03T05:25:02.030Z,101097.09
2018-08-03T05:27:30.079Z,101105.79
2018-08-03T05:29:58.607Z,101105.33
2018-08-03T05:32:27.459Z,101104.19
2018-08-03T05:34:55.519Z,101097.44
2018-08-03T05:37:23.603Z,101097.89
2018-08-03T05:39:59.617Z,101097.09
2018-08-03T05:42:27.704Z,101093.38
2018-08-03T05:44:55.760Z,101091.88
2018-08-03T05:47:23.796Z,101089.66
2018-08-03T05:49:51.852Z,101091.09
2018-08-03T05:52:19.971Z,101097.25
2018-08-03T05:54:47.955Z,101099.41
2018-08-03T05:57:16.078Z,101098.47
2018-08-03T05:59:44.659Z,101086.94
2018-08-03T06:02:12.995Z,101093.91
2018-08-03T06:04:41.655Z,101087.72
2018-08-03T06:07:10.034Z,101085.62
2018-08-03T06:09:38.625Z,101083.20
2018-08-03T06:12:07.233Z,101086.33
2018-08-03T06:14:35.997Z,101084.52
2018-08-03T06:17:05.055Z,101090.91
2018-08-03T06:19:34.320Z,101091.77
2018-08-03T06:22:02.944Z,101095.51
2018-08-03T06:24:31.900Z,101096.32
2018-08-03T06:27:00.011Z,101089.30
2018-08-03T06:29:28.177Z,101093.26
2018-08-03T06:31:56.152Z,101095.73
2018-08-03T06:34:24.214Z,101099.22
2018-08-03T06:36:52.272Z,101100.59
2018-08-03T06:39:20.348Z,101096.16
2018-08-03T06:41:48.440Z,101089.60
2018-08-03T06:44:16.492Z,101097.41
2018-08-03T06:46:44.567Z,101094.36
2018-08-03T06:49:12.611Z,101107.55
2018-08-03T06:51:40.677Z,101098.09
2018-08-03T06:54:08.850Z,101100.16
2018-08-03T06:56:36.903Z,101096.70
2018-08-03T06:59:04.952Z,101094.43
2018-08-03T07:01:33.001Z,101091.44
2018-08-03T07:04:01.131Z,101098.55
2018-08-03T07:06:29.194Z,101089.02
2018-08-03T07:08:57.252Z,101093.92
2018-08-03T07:11:25.324Z,101087.87
2018-08-03T07:13:53.427Z,101085.56
2018-08-03T07:16:21.503Z,101088.98
2018-08-03T07:18:49.544Z,101092.35
2018-08-03T07:21:24.327Z,101086.20
2018-08-03T07:23:52.399Z,101089.77
2018-08-03T07:26:20.454Z,101083.22
2018-08-03T07:28:48.632Z,101085.56
2018-08-03T07:31:16.767Z,101081.69
2018-08-03T07:33:44.899Z,101078.69
2018-08-03T07:36:13.008Z,101081.06
2018-08-03T07:38:41.068Z,101084.05
2018-08-03T07:41:09.179Z,101084.84
2018-08-03T07:43:37.294Z,101075.17
2018-08-03T07:46:05.373Z,101078.69
2018-08-03T07:48:33.387Z,101077.91
2018-08-03T07:51:01.680Z,101081.02
2018-08-03T07:53:29.831Z,101078.53
2018-08-03T07:55:58.052Z,101070.32
2018-08-03T07:58:26.143Z,101074.90
2018-08-03T08:00:54.187Z,101072.42
2018-08-03T08:03:22.256Z,101074.37
2018-08-03T08:05:50.398Z,101069.53
2018-08-03T08:08:18.474Z,101074.89
2018-08-03T08:10:46.507Z,101068.23
2018-08-03T08:13:14.745Z,101065.47
2018-08-03T08:15:42.804Z,101062.88
2018-08-03T08:18:10.859Z,101058.92
2018-08-03T08:20:39.460Z,101064.95
2018-08-03T08:23:08.189Z,101064.97
2018-08-03T08:25:36.911Z,101062.98
2018-08-03T08:28:06.713Z,101064.95
2018-08-03T08:30:35.972Z,101061.83
2018-08-03T08:33:04.033Z,101056.05
2018-08-03T08:35:32.104Z,101060.30
2018-08-03T08:38:00.176Z,101056.48
2018-08-03T08:40:28.596Z,101053.41
2018-08-03T08:42:56.687Z,101057.24
2018-08-03T08:45:24.727Z,101045.18
2018-08-03T08:47:52.772Z,101045.33
2018-08-03T08:50:20.830Z,101051.63
2018-08-03T08:52:48.867Z,101044.70
2018-08-03T08:55:16.943Z,101041.91
2018-08-03T08:57:44.992Z,101036.98
2018-08-03T09:00:13.027Z,101042.72
2018-08-03T09:02:41.086Z,101039.05
2018-08-03T09:05:09.137Z,101036.86
2018-08-03T09:07:37.267Z,101034.09
2018-08-03T09:10:05.439Z,101031.70
2018-08-03T09:12:33.482Z,101037.52
2018-08-03T09:15:01.523Z,101036.48
2018-08-03T09:17:29.564Z,101033.80
2018-08-03T09:19:57.649Z,101035.73
2018-08-03T09:22:25.687Z,101033.13
2018-08-03T09:24:53.703Z,101025.09
2018-08-03T09:27:21.749Z,101018.44
2018-08-03T09:29:49.767Z,101019.64
2018-08-03T09:32:17.835Z,101019.43
2018-08-03T09:34:45.899Z,101012.41
2018-08-03T09:37:13.946Z,101015.27
2018-08-03T09:39:41.992Z,101006.91
2018-08-03T09:42:10.095Z,101007.31
2018-08-03T09:44:38.136Z,101009.82
2018-08-03T09:47:06.176Z,101012.05
2018-08-03T09:49:34.215Z,101006.39
2018-08-03T09:52:02.263Z,101002.73
2018-08-03T09:54:30.347Z,101010.69
2018-08-03T09:56:58.410Z,101009.08
2018-08-03T09:59:26.454Z,100998.49
2018-08-03T10:01:54.524Z,101002.44
2018-08-03T10:04:22.552Z,100993.41
2018-08-03T10:06:50.592Z,100997.98
2018-08-03T10:09:18.627Z,100996.22
2018-08-03T10:11:46.767Z,100992.20
2018-08-03T10:14:15.207Z,100991.22
2018-08-03T10:16:43.379Z,100977.70
2018-08-03T10:19:11.552Z,100984.30
2018-08-03T10:21:39.583Z,100981.53
2018-08-03T10:24:08.114Z,100973.00
2018-08-03T10:26:36.832Z,100986.64
2018-08-03T10:29:05.947Z,100980.30
2018-08-03T10:31:35.534Z,100973.18
2018-08-03T10:34:05.590Z,100974.98
2018-08-03T10:36:34.920Z,100969.47
2018-08-03T10:39:05.613Z,100967.03
2018-08-03T10:41:34.928Z,100964.25
2018-08-03T10:44:04.359Z,100964.01
2018-08-03T10:46:33.424Z,100956.04
2018-08-03T10:49:01.879Z,100957.06
2018-08-03T10:51:29.928Z,100952.05
2018-08-03T10:53:57.983Z,100954.64
2018-08-03T10:56:26.094Z,100946.61
2018-08-03T10:58:54.113Z,100949.25
2018-08-03T11:01:22.236Z,100952.85
2018-08-03T11:03:50.214Z,100944.70
2018-08-03T11:06:18.279Z,100943.77
2018-08-03T11:08:46.358Z,100938.27
2018-08-03T11:11:14.495Z,100944.67
2018-08-03T11:13:42.704Z,100943.76
2018-08-03T11:16:10.665Z,100938.09
2018-08-03T11:18:38.724Z,100937.48
2018-08-03T11:21:06.872Z,100932.80
2018-08-03T11:23:34.898Z,100937.61
2018-08-03T11:26:02.960Z,100930.56
2018-08-03T11:28:31.035Z,100930.30
2018-08-03T11:30:59.143Z,100928.09
2018-08-03T11:33:27.199Z,100917.02
2018-08-03T11:35:55.291Z,100918.09
2018-08-03T11:38:23.377Z,100931.75
2018-08-03T11:40:51.486Z,100922.68
2018-08-03T11:43:19.740Z,100924.16
2018-08-03T11:45:47.775Z,100919.22
2018-08-03T11:48:16.861Z,100915.33
2018-08-03T11:50:45.524Z,100915.02
2018-08-03T11:53:14.599Z,100921.67
2018-08-03T11:55:43.837Z,100909.88
2018-08-03T11:58:13.111Z,100909.55
2018-08-03T12:00:42.223Z,100903.09
2018-08-03T12:03:11.485Z,100898.94
2018-08-03T12:05:40.599Z,100901.39
2018-08-03T12:08:09.929Z,100899.39
2018-08-03T12:10:39.569Z,100899.28
2018-08-03T12:13:10.203Z,100899.99
2018-08-03T12:15:39.686Z,100897.14
2018-08-03T12:18:08.764Z,100903.25
2018-08-03T12:20:38.251Z,100900.95
2018-08-03T12:23:07.581Z,100890.92
2018-08-03T12:25:35.760Z,100879.44
2018-08-03T12:28:03.827Z,100887.67
2018-08-03T12:30:32.067Z,100882.83
2018-08-03T12:33:00.478Z,100885.54
2018-08-03T12:35:28.646Z,100881.55
2018-08-03T12:37:56.718Z,100873.19
2018-08-03T12:40:24.779Z,100871.97
2018-08-03T12:42:52.815Z,100873.83
2018-08-03T12:45:20.904Z,100866.66
2018-08-03T12:47:48.924Z,100873.53
2018-08-03T12:50:17.296Z,100877.48
2018-08-03T12:52:46.201Z,100872.09
2018-08-03T12:55:15.416Z,100853.51
2018-08-03T12:57:44.496Z,100859.72
2018-08-03T13:00:13.327Z,100857.16
2018-08-03T13:02:42.081Z,100857.95
2018-08-03T13:05:16.832Z,100849.73
2018-08-03T13:07:44.968Z,100852.44
2018-08-03T13:10:12.918Z,100854.16
2018-08-03T13:12:40.974Z,100845.91
2018-08-03T13:15:09.664Z,100848.17
2018-08-03T13:17:37.716Z,100847.20
2018-08-03T13:20:05.950Z,100846.63
2018-08-03T13:22:34.022Z,100838.35
2018-08-03T13:25:02.076Z,100836.13
2018-08-03T13:27:30.241Z,100831.99
2018-08-03T13:29:58.704Z,100826.06
2018-08-03T13:32:26.776Z,100828.98
2018-08-03T13:34:54.818Z,100821.30
2018-08-03T13:37:22.912Z,100823.31
2018-08-03T13:39:50.968Z,100820.23
2018-08-03T13:42:19.024Z,100821.02
2018-08-03T13:44:47.052Z,100815.48
2018-08-03T13:47:15.096Z,100816.87
2018-08-03T13:49:43.151Z,100816.50
2018-08-03T13:52:11.194Z,100809.42
2018-08-03T13:54:39.239Z,100812.45
2018-08-03T13:57:07.265Z,100806.41
2018-08-03T13:59:35.328Z,100805.12
2018-08-03T14:02:17.303Z,100799.27
2018-08-03T14:04:45.920Z,100802.70
2018-08-03T14:07:14.006Z,100804.50
2018-08-03T14:09:42.040Z,100801.13
2018-08-03T14:12:10.273Z,100796.10
2018-08-03T14:14:38.863Z,100799.23
2018-08-03T14:17:07.019Z,100787.78
2018-08-03T14:19:35.082Z,100788.35
2018-08-03T14:22:03.157Z,100788.50
2018-08-03T14:24:31.177Z,100791.41
2018-08-03T14:26:59.208Z,100788.17
2018-08-03T14:29:27.243Z,100784.00
2018-08-03T14:31:55.332Z,100775.72
2018-08-03T14:34:23.380Z,100777.34
2018-08-03T14:36:51.428Z,100773.67
2018-08-03T14:39:19.509Z,100771.65
2018-08-03T14:41:47.900Z,100763.22
2018-08-03T14:44:15.939Z,100765.56
2018-08-03T14:46:43.983Z,100762.13
2018-08-03T14:49:12.075Z,100758.20
2018-08-03T14:51:40.226Z,100751.94
2018-08-03T14:54:08.359Z,100752.78
2018-08-03T14:56:36.453Z,100758.63
2018-08-03T14:59:04.455Z,100743.94
2018-08-03T15:01:32.504Z,100747.10
2018-08-03T15:04:00.535Z,100748.39
2018-08-03T15:06:28.587Z,100740.38
2018-08-03T15:08:56.639Z,100735.11
2018-08-03T15:11:24.686Z,100739.82
2018-08-03T15:13:52.742Z,100732.50
2018-08-03T15:16:20.765Z,100725.20
2018-08-03T15:18:48.824Z,100732.69
2018-08-03T15:21:16.855Z,100728.44
2018-08-03T15:23:45.035Z,100721.47
2018-08-03T15:26:13.075Z,100725.42
2018-08-03T15:28:41.113Z,100724.28
2018-08-03T15:31:09.168Z,100728.53
2018-08-03T15:33:37.203Z,100717.12
2018-08-03T15:36:05.252Z,100719.63
2018-08-03T15:38:33.278Z,100717.25
2018-08-03T15:41:01.314Z,100717.44
2018-08-03T15:43:29.335Z,100722.72
2018-08-03T15:45:57.380Z,100714.31
2018-08-03T15:48:25.432Z,100713.30
2018-08-03T15:50:53.480Z,100699.89
2018-08-03T15:53:21.531Z,100705.02
2018-08-03T15:55:49.560Z,100703.17
2018-08-03T15:58:17.648Z,100709.53
2018-08-03T16:00:45.680Z,100708.21
2018-08-03T16:03:13.743Z,100699.39
2018-08-03T16:05:41.763Z,100695.63
2018-08-03T16:08:09.852Z,100694.48
2018-08-03T16:10:37.871Z,100694.98
2018-08-03T16:13:06.384Z,100687.38
2018-08-03T16:15:34.480Z,100689.05
2018-08-03T16:18:02.547Z,100686.74
2018-08-03T16:20:30.601Z,100683.77
2018-08-03T16:22:58.635Z,100682.03
2018-08-03T16:25:26.706Z,100682.53
2018-08-03T16:27:54.754Z,100678.64
2018-08-03T16:30:22.808Z,100678.61
2018-08-03T16:32:50.840Z,100673.94
2018-08-03T16:35:18.929Z,100675.41
2018-08-03T16:37:46.967Z,100675.29
2018-08-03T16:40:15.035Z,100673.94
2018-08-03T16:42:43.087Z,100675.07
2018-08-03T16:45:11.106Z,100679.40
2018-08-03T16:47:39.185Z,100679.52
2018-08-03T16:50:07.659Z,100672.48
2018-08-03T16:52:35.693Z,100679.81
2018-08-03T16:55:03.776Z,100669.87
2018-08-03T16:57:31.834Z,100670.58
2018-08-03T16:59:59.848Z,100671.41
2018-08-03T17:02:27.907Z,100668.91
2018-08-03T17:04:55.951Z,100668.00
2018-08-03T17:07:23.981Z,100668.49
2018-08-03T17:09:52.151Z,100671.88
2018-08-03T17:12:20.179Z,100663.52
2018-08-03T17:14:48.269Z,100667.13
2018-08-03T17:17:16.343Z,100665.55
2018-08-03T17:19:44.390Z,100666.14
2018-08-03T17:22:12.703Z,100663.38
2018-08-03T17:24:40.775Z,100669.45
2018-08-03T17:27:08.822Z,100667.70
2018-08-03T17:29:36.878Z,100667.80
2018-08-03T17:32:04.989Z,100666.51
2018-08-03T17:34:33.019Z,100662.28
2018-08-03T17:37:01.169Z,100664.09
2018-08-03T17:39:29.095Z,100662.45
2018-08-03T17:41:57.131Z,100660.70
2018-08-03T17:44:25.549Z,100660.58
2018-08-03T17:46:53.621Z,100663.14
2018-08-03T17:49:21.648Z,100659.00
2018-08-03T17:51:49.688Z,100666.05
2018-08-03T17:54:18.049Z,100652.13
2018-08-03T17:56:46.067Z,100661.28
2018-08-03T17:59:15.072Z,100662.00
2018-08-03T18:01:43.700Z,100655.16
2018-08-03T18:04:12.415Z,100653.30
2018-08-03T18:06:40.896Z,100654.15
2018-08-03T18:09:09.676Z,100650.86
2018-08-03T18:11:38.836Z,100653.02
2018-08-03T18:14:07.719Z,100654.70
2018-08-03T18:16:35.994Z,100658.80
2018-08-03T18:19:04.262Z,100658.88
2018-08-03T18:21:32.337Z,100658.80
2018-08-03T18:24:00.488Z,100660.91
2018-08-03T18:26:28.514Z,100662.33
2018-08-03T18:28:56.611Z,100670.66
2018-08-03T18:31:24.591Z,100672.73
2018-08-03T18:33:52.619Z,100670.57
2018-08-03T18:36:20.680Z,100671.68
2018-08-03T18:38:48.833Z,100679.66
2018-08-03T18:41:16.919Z,100688.78
2018-08-03T18:43:44.959Z,100679.58
2018-08-03T18:46:13.087Z,100688.03
2018-08-03T18:48:41.063Z,100690.19
2018-08-03T18:51:09.234Z,100695.77
2018-08-03T18:53:37.631Z,100695.42
2018-08-03T18:56:05.775Z,100692.28
2018-08-03T18:58:33.816Z,100689.89
2018-08-03T19:01:01.927Z,100698.94
2018-08-03T19:03:30.287Z,100710.70
2018-08-03T19:05:58.358Z,100700.29
2018-08-03T19:08:26.423Z,100698.91
2018-08-03T19:10:54.467Z,100709.23
2018-08-03T19:13:22.524Z,100709.89
2018-08-03T19:15:50.584Z,100716.86
2018-08-03T19:18:18.628Z,100719.07
2018-08-03T19:20:46.767Z,100724.45
2018-08-03T19:23:15.354Z,100729.38
2018-08-03T19:25:45.264Z,100736.94
2018-08-03T19:28:13.949Z,100744.39
2018-08-03T19:30:42.504Z,100747.84
2018-08-03T19:33:11.648Z,100743.28
2018-08-03T19:35:42.302Z,100756.06
2018-08-03T19:38:11.100Z,100748.61
2018-08-03T19:40:39.964Z,100752.39
2018-08-03T19:43:10.236Z,100750.66
2018-08-03T19:45:39.207Z,100755.70
2018-08-03T19:48:08.655Z,100756.45
2018-08-03T19:50:38.626Z,100760.23
2018-08-03T19:53:10.283Z,100755.63
2018-08-03T19:55:40.179Z,100768.38
2018-08-03T19:58:09.658Z,100769.91
2018-08-03T20:00:38.744Z,100769.20
2018-08-03T20:03:08.117Z,100766.36
2018-08-03T20:05:39.446Z,100771.38
2018-08-03T20:08:08.787Z,100770.57
2018-08-03T20:10:38.571Z,100781.25
2018-08-03T20:13:08.058Z,100779.38
2018-08-03T20:15:38.303Z,100782.66
2018-08-03T20:18:08.500Z,100789.84
2018-08-03T20:20:37.512Z,100785.36
2018-08-03T20:23:06.675Z,100787.88
2018-08-03T20:25:36.520Z,100789.41
2018-08-03T20:28:05.396Z,100785.99
2018-08-03T20:30:34.726Z,100795.48
2018-08-03T20:33:04.170Z,100798.55
2018-08-03T20:35:33.489Z,100802.70
2018-08-03T20:38:02.204Z,100801.62
2018-08-03T20:40:30.611Z,100806.48
2018-08-03T20:42:58.748Z,100800.62
2018-08-03T20:45:26.799Z,100806.55
2018-08-03T20:47:54.850Z,100811.34
2018-08-03T20:50:22.904Z,100817.88
2018-08-03T20:52:50.986Z,100825.41
2018-08-03T20:55:19.257Z,100822.76
2018-08-03T20:57:47.412Z,100823.05
2018-08-03T21:00:15.481Z,100821.30
2018-08-03T21:02:43.531Z,100820.63
2018-08-03T21:05:11.581Z,100819.75
2018-08-03T21:07:39.607Z,100819.06
2018-08-03T21:10:07.647Z,100815.69
2018-08-03T21:12:35.707Z,100817.67
2018-08-03T21:15:04.100Z,100818.69
2018-08-03T21:17:32.131Z,100820.64
2018-08-03T21:20:00.176Z,100821.73
2018-08-03T21:22:28.236Z,100829.03
2018-08-03T21:24:56.275Z,100818.62
2018-08-03T21:27:24.688Z,100817.92
2018-08-03T21:29:53.519Z,100819.50
2018-08-03T21:32:21.560Z,100814.27
2018-08-03T21:34:49.623Z,100813.33
2018-08-03T21:37:17.910Z,100815.79
2018-08-03T21:39:46.340Z,100807.56
2018-08-03T21:42:15.145Z,100814.11
2018-08-03T21:44:44.004Z,100819.25
2018-08-03T21:47:12.287Z,100815.91
2018-08-03T21:49:40.304Z,100816.47
2018-08-03T21:52:08.338Z,100814.54
2018-08-03T21:54:36.372Z,100808.55
2018-08-03T21:57:04.432Z,100808.98
2018-08-03T21:59:32.474Z,100805.03
2018-08-03T22:02:00.596Z,100802.48
2018-08-03T22:04:28.606Z,100797.11
2018-08-03T22:06:56.652Z,100795.18
2018-08-03T22:09:24.719Z,100795.64
2018-08-03T22:11:52.768Z,100787.27
2018-08-03T22:14:20.805Z,100783.92
2018-08-03T22:16:48.823Z,100775.08
2018-08-03T22:19:17.139Z,100778.19
2018-08-03T22:21:45.178Z,100784.39
2018-08-03T22:24:14.061Z,100793.42
2018-08-03T22:26:42.786Z,100786.11
2018-08-03T22:29:11.592Z,100780.00
2018-08-03T22:31:40.589Z,100785.74
2018-08-03T22:34:08.655Z,100779.58
2018-08-03T22:36:36.675Z,100789.11
2018-08-03T22:39:06.735Z,100785.59
2018-08-03T22:41:34.751Z,100789.11
2018-08-03T22:44:02.819Z,100785.77
2018-08-03T22:46:31.120Z,100779.78
2018-08-03T22:48:59.527Z,100777.05
2018-08-03T22:51:27.555Z,100773.17
2018-08-03T22:53:55.669Z,100764.45
2018-08-03T22:56:23.943Z,100772.05
2018-08-03T22:58:52.251Z,100777.36
2018-08-03T23:01:20.327Z,100779.66
2018-08-03T23:03:48.527Z,100776.64
2018-08-03T23:06:17.059Z,100774.52
2018-08-03T23:08:45.587Z,100767.40
2018-08-03T23:11:14.275Z,100759.68
2018-08-03T23:13:42.622Z,100760.94
2018-08-03T23:16:10.660Z,100759.61
2018-08-03T23:18:38.679Z,100755.65
2018-08-03T23:21:06.720Z,100759.89
2018-08-03T23:23:34.759Z,100764.81
2018-08-03T23:26:02.795Z,100776.78
2018-08-03T23:28:31.776Z,100774.69
2018-08-03T23:30:59.817Z,100770.80
2018-08-03T23:33:27.887Z,100775.53
2018-08-03T23:35:55.940Z,100774.65
2018-08-03T23:38:23.975Z,100775.45
2018-08-03T23:40:52.015Z,100771.30
2018-08-03T23:43:20.046Z,100777.80
2018-08-03T23:45:48.571Z,100774.09
2018-08-03T23:48:17.363Z,100761.88
2018-08-03T23:50:45.942Z,100758.79
2018-08-03T23:53:14.706Z,100756.31
2018-08-03T23:55:43.887Z,100753.22
2018-08-03T23:58:12.736Z,100757.77
